Terminal Aerodrome Forecast
Issued by NWS Wilmington, OH

Current Version | Previous Version | Graphics & Text | Print | Product List | Glossary On
Versions: 1 2 3 4 5 6 7 8 9 10 11 12 13 14 15 16 17
950
FTUS41 KILN 281730
TAFCMH
TAF
KCMH 281730Z 2818/2918 33011KT P6SM OVC012
     FM282200 35006KT P6SM OVC022
     FM290300 36005KT P6SM OVC018
     FM291400 03005KT P6SM BKN022
     FM291600 04006KT P6SM BKN050
     FM291700 04006KT P6SM SCT200=

USA.gov is the U.S. government's official web portal to all federal, state and local government web resources and services.